Airfield :
LOGIN :

Register | Disclaimer

   EN    FR    IT 

 










Legend :    VFR   Marginal VFR   IFR   Intensive IFR   Very Intensive IFR
Visi :
Ceiling :
>= 8 km
>= 3000ft
5 to 8 km
1000 to 3000 ft
1500m to 5 km
500 to 1000 ft
800 to 1500m
200 to 500 ft
< 800m
< 200 ft
Symbols :   Thunderstorms  Fog  Heavy snow  Heavy precipitations  Wind > 20 kt
SIGMETs :     Misc.  Thunderstorms  Icing  Turbulence  Mountain Waves  Volcanic Ashes






- Airport Elevation : 5600 ft
- IATA code : SMV


LSZS - Samedan

CURRENT METAR :
  • 281220Z 02004KT 320V080 CAVOK M03/M18 Q1016 RMK L TL170

EXPIRED METARs :
  • 281150Z 03005KT 9999 FEW040 M05/M16 Q1016 RMK K TL170
  • 281120Z 04006KT 330V070 9999 FEW040 M05/M16 Q1016 RMK J TL170
  • 281050Z 35004KT 320V030 9999 FEW040 M04/M17 Q1016 RMK I TL170
  • 281020Z 09004KT 030V150 9999 FEW040 M05/M17 Q1016 RMK H TL170
  • 280950Z 10004KT 9999 FEW040 M05/M17 Q1015 RMK G TL170
  • 280920Z VRB01KT 9999 FEW040 M05/M14 Q1015 R03/19//95 RMK F TL170

TAF TAF LSZS
Valid from the 28 at 12:00 until the 28 at 21:00 UTC


281125Z 2812/2821 VRB03KT CAVOK TXM01/2814Z
BECMG 2817/2820 9999 BKN070
ATIS : +41 81 834 93 24



MET'MAP, your aeronautical weather chart ! - Copyright ORBIFLY December 2007 - Disclaimer

ORBIFLY MET'MAP TEAM :

Programming & Development : Alexandra Zaïnal
Concept & original design : Baudouin d'Aumeries
Assistance for programming : Marc-Olivier Méhu
Technical & hardware support : Manuel Goepfert

Contact : metmap@orbifly.com




SOURCES & CREDITS :

   NOAA